createdAt,value
2018-11-20T00:02:25.327Z,46.10
2018-11-20T00:05:12.999Z,46.20
2018-11-20T00:08:01.707Z,46.20
2018-11-20T00:10:56.748Z,46.20
2018-11-20T00:13:34.363Z,46.20
2018-11-20T00:16:18.448Z,46.10
2018-11-20T00:19:10.375Z,46.10
2018-11-20T00:21:57.910Z,46.10
2018-11-20T00:24:46.764Z,46.10
2018-11-20T00:27:35.618Z,46.10
2018-11-20T00:30:19.459Z,46.10
2018-11-20T00:33:11.056Z,46.10
2018-11-20T00:35:58.306Z,46.10
2018-11-20T00:38:52.940Z,46.10
2018-11-20T00:41:29.939Z,46.10
2018-11-20T00:44:24.711Z,46.10
2018-11-20T00:47:19.290Z,46.10
2018-11-20T00:50:06.592Z,46.10
2018-11-20T00:52:57.631Z,46.10
2018-11-20T00:56:25.076Z,46.10
2018-11-20T00:59:16.731Z,46.00
2018-11-20T01:02:07.193Z,46.00
2018-11-20T01:04:58.945Z,46.00
2018-11-20T01:07:50.682Z,46.00
2018-11-20T01:10:38.008Z,46.00
2018-11-20T01:13:41.909Z,46.00
2018-11-20T01:16:30.873Z,45.90
2018-11-20T01:19:18.359Z,45.90
2018-11-20T01:22:13.161Z,45.90
2018-11-20T01:25:14.192Z,45.90
2018-11-20T01:27:56.712Z,46.00
2018-11-20T01:30:44.248Z,46.00
2018-11-20T01:33:33.087Z,45.90
2018-11-20T01:36:20.528Z,45.90
2018-11-20T01:39:15.282Z,45.90
2018-11-20T01:42:01.044Z,46.00
2018-11-20T01:44:52.837Z,45.90
2018-11-20T01:47:40.051Z,46.00
2018-11-20T01:50:31.782Z,46.10
2018-11-20T01:53:23.405Z,46.00
2018-11-20T01:56:03.849Z,46.10
2018-11-20T01:58:49.812Z,46.20
2018-11-20T02:01:47.482Z,46.10
2018-11-20T02:04:36.210Z,46.10
2018-11-20T02:07:25.653Z,46.10
2018-11-20T02:10:29.673Z,46.20
2018-11-20T02:13:52.929Z,46.20
2018-11-20T02:16:41.657Z,46.20
2018-11-20T02:19:42.526Z,46.20
2018-11-20T02:22:34.031Z,46.20
2018-11-20T02:25:21.703Z,46.30
2018-11-20T02:28:09.056Z,46.30
2018-11-20T02:31:09.842Z,46.30
2018-11-20T02:34:01.560Z,46.30
2018-11-20T02:36:48.984Z,46.30
2018-11-20T02:39:49.313Z,46.30
2018-11-20T02:42:33.404Z,46.30
2018-11-20T02:45:20.845Z,46.30
2018-11-20T02:48:08.429Z,46.30
2018-11-20T02:51:09.127Z,46.30
2018-11-20T02:54:06.829Z,46.40
2018-11-20T02:56:53.884Z,46.40
2018-11-20T02:59:54.893Z,46.40
2018-11-20T03:02:42.608Z,46.40
2018-11-20T03:05:46.531Z,46.30
2018-11-20T03:08:41.078Z,46.30
2018-11-20T03:11:48.343Z,46.40
2018-11-20T03:14:34.919Z,46.30
2018-11-20T03:17:23.883Z,46.40
2018-11-20T03:20:02.087Z,46.40
2018-11-20T03:23:02.464Z,46.40
2018-11-20T03:26:01.374Z,46.40
2018-11-20T03:29:05.942Z,46.40
2018-11-20T03:31:53.569Z,46.40
2018-11-20T03:34:42.152Z,46.80
2018-11-20T03:37:21.645Z,46.30
2018-11-20T03:40:09.531Z,46.30
2018-11-20T03:43:04.294Z,46.30
2018-11-20T03:45:56.048Z,46.30
2018-11-20T03:48:48.561Z,46.40
2018-11-20T03:51:43.461Z,46.40
2018-11-20T03:54:30.169Z,46.40
2018-11-20T03:57:36.940Z,46.40
2018-11-20T04:00:41.612Z,46.40
2018-11-20T04:03:23.123Z,46.30
2018-11-20T04:06:13.761Z,46.40
2018-11-20T04:09:00.909Z,46.40
2018-11-20T04:11:48.272Z,46.40
2018-11-20T04:14:35.524Z,46.40
2018-11-20T04:17:39.230Z,46.40
2018-11-20T04:20:33.821Z,46.50
2018-11-20T04:23:13.907Z,46.50
2018-11-20T04:26:01.184Z,46.50
2018-11-20T04:28:48.620Z,46.50
2018-11-20T04:32:22.278Z,46.50
2018-11-20T04:35:12.160Z,46.50
2018-11-20T04:38:07.021Z,46.60
2018-11-20T04:40:54.588Z,46.60
2018-11-20T04:43:58.242Z,46.60
2018-11-20T04:47:05.173Z,46.60
2018-11-20T04:49:47.437Z,46.60
2018-11-20T04:52:30.998Z,46.60
2018-11-20T04:55:11.833Z,46.60
2018-11-20T04:57:58.962Z,46.60
2018-11-20T05:00:48.223Z,46.60
2018-11-20T05:03:55.244Z,46.60
2018-11-20T05:06:55.948Z,46.60
2018-11-20T05:09:53.451Z,46.60
2018-11-20T05:12:42.084Z,46.60
2018-11-20T05:15:29.595Z,46.60
2018-11-20T05:18:30.202Z,46.70
2018-11-20T05:21:34.192Z,46.60
2018-11-20T05:24:28.536Z,46.60
2018-11-20T05:27:15.421Z,46.60
2018-11-20T05:29:57.357Z,46.60
2018-11-20T05:32:52.235Z,46.50
2018-11-20T05:35:49.801Z,46.60
2018-11-20T05:38:33.268Z,46.60
2018-11-20T05:41:11.068Z,46.50
2018-11-20T05:43:59.737Z,46.50
2018-11-20T05:46:47.518Z,46.60
2018-11-20T05:49:45.054Z,46.50
2018-11-20T05:52:32.379Z,46.50
2018-11-20T05:55:19.593Z,46.60
2018-11-20T05:58:08.503Z,46.50
2018-11-20T06:00:57.439Z,46.50
2018-11-20T06:03:53.320Z,46.50
2018-11-20T06:06:44.788Z,46.50
2018-11-20T06:09:39.587Z,46.50
2018-11-20T06:12:34.440Z,46.60
2018-11-20T06:15:21.757Z,46.60
2018-11-20T06:18:09.163Z,46.60
2018-11-20T06:21:12.817Z,46.60
2018-11-20T06:24:00.457Z,46.60
2018-11-20T06:26:58.746Z,46.60
2018-11-20T06:29:53.072Z,46.60
2018-11-20T06:32:40.141Z,46.50
2018-11-20T06:35:40.776Z,46.50
2018-11-20T06:38:38.483Z,46.50
2018-11-20T06:41:25.527Z,46.50
2018-11-20T06:44:29.374Z,46.50
2018-11-20T06:47:20.750Z,46.50
2018-11-20T06:50:18.856Z,46.50
2018-11-20T06:53:16.608Z,46.50
2018-11-20T06:56:03.537Z,46.50
2018-11-20T06:58:58.296Z,46.50
2018-11-20T07:01:47.745Z,46.40
2018-11-20T07:04:41.381Z,46.40
2018-11-20T07:07:22.936Z,46.50
2018-11-20T07:10:17.790Z,46.40
2018-11-20T07:13:04.674Z,46.40
2018-11-20T07:16:08.738Z,46.50
2018-11-20T07:18:57.377Z,46.40
2018-11-20T07:21:46.314Z,46.40
2018-11-20T07:24:31.024Z,46.40
2018-11-20T07:27:19.236Z,46.40
2018-11-20T07:30:07.039Z,46.40
2018-11-20T07:33:07.663Z,46.40
2018-11-20T07:35:54.890Z,46.40
2018-11-20T07:38:43.631Z,46.40
2018-11-20T07:41:41.539Z,46.30
2018-11-20T07:44:29.190Z,46.40
2018-11-20T07:47:18.223Z,46.40
2018-11-20T07:50:12.813Z,46.40
2018-11-20T07:52:59.804Z,46.30
2018-11-20T07:55:54.246Z,46.20
2018-11-20T07:58:41.442Z,46.30
2018-11-20T08:01:30.183Z,46.30
2018-11-20T08:04:31.340Z,46.30
2018-11-20T08:07:12.768Z,46.30
2018-11-20T08:10:00.259Z,46.30
2018-11-20T08:12:55.054Z,46.30
2018-11-20T08:15:47.218Z,46.30
2018-11-20T08:18:35.817Z,46.30
2018-11-20T08:21:15.898Z,46.30
2018-11-20T08:24:00.257Z,46.40
2018-11-20T08:26:44.008Z,46.40
2018-11-20T08:29:32.639Z,46.40
2018-11-20T08:32:39.482Z,46.40
2018-11-20T08:35:27.051Z,46.30
2018-11-20T08:38:14.421Z,46.30
2018-11-20T08:41:06.065Z,46.40
2018-11-20T08:44:13.202Z,46.30
2018-11-20T08:47:07.631Z,46.90
2018-11-20T08:50:02.381Z,46.30
2018-11-20T08:53:09.156Z,46.30
2018-11-20T08:55:56.786Z,46.40
2018-11-20T08:58:36.875Z,46.30
2018-11-20T09:01:34.401Z,46.40
2018-11-20T09:04:30.736Z,46.40
2018-11-20T09:07:18.810Z,46.30
2018-11-20T09:10:19.841Z,46.40
2018-11-20T09:13:07.244Z,46.30
2018-11-20T09:15:54.772Z,46.40
2018-11-20T09:18:49.300Z,46.50
2018-11-20T09:21:49.896Z,46.40
2018-11-20T09:24:29.340Z,46.50
2018-11-20T09:27:21.064Z,46.40
2018-11-20T09:30:08.889Z,46.50
2018-11-20T09:32:57.758Z,46.90
2018-11-20T09:35:58.590Z,46.50
2018-11-20T09:38:46.320Z,46.50
2018-11-20T09:41:36.165Z,46.50
2018-11-20T09:44:49.270Z,46.50
2018-11-20T09:47:36.653Z,46.40
2018-11-20T09:50:30.774Z,46.40
2018-11-20T09:53:18.364Z,46.50
2018-11-20T09:56:22.480Z,46.40
2018-11-20T09:59:14.244Z,46.40
2018-11-20T10:02:01.286Z,46.40
2018-11-20T10:05:00.077Z,46.30
2018-11-20T10:08:07.715Z,47.00
2018-11-20T10:10:54.798Z,46.40
2018-11-20T10:13:42.240Z,46.40
2018-11-20T10:16:33.885Z,46.40
2018-11-20T10:19:25.198Z,46.30
2018-11-20T10:22:12.503Z,46.40
2018-11-20T10:25:10.102Z,46.40
2018-11-20T10:27:57.499Z,46.40
2018-11-20T10:30:41.778Z,46.30
2018-11-20T10:33:33.276Z,46.20
2018-11-20T10:36:13.990Z,46.30
2018-11-20T10:38:58.465Z,46.30
2018-11-20T10:41:45.623Z,46.30
2018-11-20T10:44:49.551Z,46.30
2018-11-20T10:47:41.052Z,46.30
2018-11-20T10:50:27.777Z,46.30
2018-11-20T10:53:28.397Z,46.40
2018-11-20T10:56:22.779Z,46.40
2018-11-20T10:59:10.079Z,46.30
2018-11-20T11:01:57.744Z,46.30
2018-11-20T11:04:45.103Z,46.30
2018-11-20T11:07:52.144Z,46.30
2018-11-20T11:10:40.808Z,46.30
2018-11-20T11:13:32.978Z,46.30
2018-11-20T11:16:24.766Z,46.30
2018-11-20T11:19:25.597Z,46.30
2018-11-20T11:22:11.416Z,46.30
2018-11-20T11:24:51.335Z,46.90
2018-11-20T11:27:43.265Z,46.30
2018-11-20T11:30:31.222Z,46.20
2018-11-20T11:33:26.770Z,46.10
2018-11-20T11:36:09.949Z,46.20
2018-11-20T11:39:07.503Z,46.80
2018-11-20T11:41:59.034Z,46.20
2018-11-20T11:44:46.130Z,46.20
2018-11-20T11:47:42.932Z,46.20
2018-11-20T11:50:46.817Z,46.20
2018-11-20T11:53:30.967Z,46.20
2018-11-20T11:56:18.389Z,46.90
2018-11-20T11:59:10.101Z,46.30
2018-11-20T12:04:50.220Z,46.30
2018-11-20T12:07:39.151Z,46.40
2018-11-20T12:10:36.106Z,46.40
2018-11-20T12:16:05.407Z,46.40
2018-11-20T12:19:12.395Z,46.40
2018-11-20T12:22:01.863Z,46.30
2018-11-20T12:24:50.615Z,46.30
2018-11-20T12:27:51.351Z,46.30
2018-11-20T12:30:43.443Z,46.30
2018-11-20T12:33:20.257Z,46.30
2018-11-20T12:36:18.305Z,46.30
2018-11-20T12:39:22.242Z,46.20
2018-11-20T12:42:04.866Z,46.10
2018-11-20T12:44:51.774Z,46.10
2018-11-20T12:47:49.361Z,46.10
2018-11-20T12:50:56.417Z,46.00
2018-11-20T12:53:49.197Z,46.10
2018-11-20T12:56:56.299Z,46.20
2018-11-20T12:59:43.593Z,46.30
2018-11-20T13:02:31.314Z,46.50
2018-11-20T13:05:20.084Z,46.70
2018-11-20T13:08:07.608Z,46.80
2018-11-20T13:10:56.320Z,47.00
2018-11-20T13:13:47.943Z,46.90
2018-11-20T13:16:42.575Z,47.10
2018-11-20T13:19:43.523Z,47.10
2018-11-20T13:22:31.157Z,47.70
2018-11-20T13:25:18.656Z,47.10
2018-11-20T13:28:00.626Z,47.00
2018-11-20T13:30:48.611Z,47.00
2018-11-20T13:33:39.101Z,46.90
2018-11-20T13:36:28.229Z,47.00
2018-11-20T13:39:09.659Z,47.00
2018-11-20T13:42:08.450Z,47.20
2018-11-20T13:45:02.299Z,47.40
2018-11-20T13:47:59.744Z,47.70
2018-11-20T13:50:40.877Z,47.90
2018-11-20T13:53:32.687Z,48.00
2018-11-20T13:56:19.819Z,48.10
2018-11-20T13:59:07.339Z,48.00
2018-11-20T14:01:56.212Z,48.10
2018-11-20T14:04:44.028Z,48.00
2018-11-20T14:07:38.739Z,48.00
2018-11-20T14:10:27.690Z,48.00
2018-11-20T14:13:23.465Z,47.90
2018-11-20T14:16:12.504Z,47.90
2018-11-20T14:19:00.139Z,47.70
2018-11-20T14:21:55.011Z,47.70
2018-11-20T14:24:45.396Z,47.60
2018-11-20T14:27:34.871Z,47.60
2018-11-20T14:30:22.912Z,47.50
2018-11-20T14:33:05.789Z,47.40
2018-11-20T14:35:53.667Z,47.50
2018-11-20T14:38:41.195Z,47.30
2018-11-20T14:41:41.935Z,47.90
2018-11-20T14:44:36.929Z,47.10
2018-11-20T14:47:24.258Z,47.80
2018-11-20T14:50:09.277Z,47.00
2018-11-20T14:52:56.743Z,47.00
2018-11-20T14:55:44.070Z,46.90
2018-11-20T14:58:25.289Z,46.90
2018-11-20T15:01:17.077Z,46.90
2018-11-20T15:04:24.265Z,46.90
2018-11-20T15:07:18.857Z,46.80
2018-11-20T15:10:00.347Z,46.80
2018-11-20T15:12:47.854Z,46.90
2018-11-20T15:15:42.771Z,46.90
2018-11-20T15:18:44.006Z,46.70
2018-11-20T15:21:24.277Z,46.60
2018-11-20T15:24:11.915Z,46.60
2018-11-20T15:27:15.720Z,46.70
2018-11-20T15:30:11.783Z,46.50
2018-11-20T15:33:02.836Z,46.40
2018-11-20T15:35:50.483Z,46.30
2018-11-20T15:38:38.207Z,47.00
2018-11-20T15:41:25.848Z,46.30
2018-11-20T15:44:20.238Z,46.80
2018-11-20T15:47:11.756Z,46.30
2018-11-20T15:51:10.264Z,46.20
2018-11-20T15:53:56.913Z,46.20
2018-11-20T15:56:44.985Z,46.20
2018-11-20T15:59:33.035Z,46.00
2018-11-20T16:02:19.729Z,46.00
2018-11-20T16:05:16.874Z,46.00
2018-11-20T16:08:07.799Z,46.00
2018-11-20T16:11:01.912Z,46.00
2018-11-20T16:13:49.305Z,46.00
2018-11-20T16:16:30.248Z,46.00
2018-11-20T16:19:24.365Z,46.10
2018-11-20T16:22:31.133Z,46.20
2018-11-20T16:25:34.293Z,46.50
2018-11-20T16:28:34.498Z,46.60
2018-11-20T16:31:25.178Z,46.80
2018-11-20T16:34:11.755Z,47.00
2018-11-20T16:36:58.374Z,47.10
2018-11-20T16:39:45.172Z,47.10
2018-11-20T16:42:31.689Z,47.20
2018-11-20T16:45:29.172Z,47.30
2018-11-20T16:48:20.090Z,47.40
2018-11-20T16:51:11.142Z,47.50
2018-11-20T16:53:58.181Z,47.70
2018-11-20T16:56:46.216Z,47.90
2018-11-20T16:59:37.016Z,48.10
2018-11-20T17:02:28.631Z,48.30
2018-11-20T17:05:28.454Z,48.20
2018-11-20T17:08:15.200Z,48.20
2018-11-20T17:11:01.768Z,48.10
2018-11-20T17:13:42.003Z,48.00
2018-11-20T17:16:39.001Z,47.90
2018-11-20T17:19:30.071Z,47.90
2018-11-20T17:22:18.233Z,47.90
2018-11-20T17:25:05.106Z,47.80
2018-11-20T17:28:08.319Z,47.70
2018-11-20T17:30:54.770Z,47.70
2018-11-20T17:33:52.002Z,47.70
2018-11-20T17:36:52.328Z,47.70
2018-11-20T17:39:30.243Z,47.50
2018-11-20T17:42:17.249Z,47.50
2018-11-20T17:44:53.683Z,47.90
2018-11-20T17:47:41.318Z,47.40
2018-11-20T17:50:37.985Z,47.70
2018-11-20T17:53:32.834Z,48.30
2018-11-20T17:56:26.079Z,48.60
2018-11-20T17:59:12.344Z,48.70
2018-11-20T18:02:06.626Z,48.80
2018-11-20T18:05:06.543Z,48.80
2018-11-20T18:08:06.917Z,48.80
2018-11-20T18:11:08.029Z,48.80
2018-11-20T18:14:01.332Z,48.80
2018-11-20T18:16:49.473Z,48.70
2018-11-20T18:19:36.438Z,48.70
2018-11-20T18:22:23.159Z,48.60
2018-11-20T18:25:18.248Z,48.60
2018-11-20T18:28:24.515Z,48.60
2018-11-20T18:31:11.333Z,48.70
2018-11-20T18:34:11.354Z,48.60
2018-11-20T18:36:58.393Z,48.60
2018-11-20T18:39:46.495Z,48.60
2018-11-20T18:42:46.170Z,48.50
2018-11-20T18:45:33.009Z,48.50
2018-11-20T18:48:33.365Z,48.50
2018-11-20T18:51:27.561Z,48.30
2018-11-20T18:54:24.590Z,48.10
2018-11-20T18:57:22.516Z,47.90
2018-11-20T19:00:19.408Z,47.80
2018-11-20T19:03:10.623Z,47.60
2018-11-20T19:05:57.642Z,47.40
2018-11-20T19:08:42.807Z,47.40
2018-11-20T19:11:42.941Z,47.30
2018-11-20T19:14:45.393Z,47.20
2018-11-20T19:17:50.549Z,47.20
2018-11-20T19:20:38.095Z,47.10
2018-11-20T19:23:26.941Z,47.00
2018-11-20T19:26:17.899Z,47.00
2018-11-20T19:28:56.362Z,47.00
2018-11-20T19:31:53.624Z,46.90
2018-11-20T19:34:41.482Z,46.90
2018-11-20T19:37:41.328Z,46.80
2018-11-20T19:40:34.973Z,46.80
2018-11-20T19:43:37.826Z,46.70
2018-11-20T19:46:24.037Z,46.70
2018-11-20T19:49:24.178Z,46.60
2018-11-20T19:52:21.152Z,46.50
2018-11-20T19:55:08.221Z,46.50
2018-11-20T19:57:55.237Z,46.50
2018-11-20T20:00:34.158Z,46.50
2018-11-20T20:03:22.274Z,46.50
2018-11-20T20:06:09.984Z,47.00
2018-11-20T20:08:50.911Z,46.30
2018-11-20T20:11:41.905Z,46.30
2018-11-20T20:14:35.886Z,47.00
2018-11-20T20:17:22.957Z,46.40
2018-11-20T20:20:09.301Z,46.20
2018-11-20T20:23:00.210Z,46.30
2018-11-20T20:25:36.725Z,46.20
2018-11-20T20:28:27.786Z,46.20
2018-11-20T20:31:17.974Z,46.10
2018-11-20T20:34:06.001Z,46.60
2018-11-20T20:36:52.742Z,45.80
2018-11-20T20:39:39.635Z,46.10
2018-11-20T20:42:39.636Z,46.20
2018-11-20T20:45:30.485Z,46.00
2018-11-20T20:48:27.407Z,46.10
2018-11-20T20:51:15.447Z,46.10
2018-11-20T20:53:56.932Z,46.00
2018-11-20T20:56:39.833Z,46.10
2018-11-20T20:59:33.469Z,46.10
2018-11-20T21:02:19.930Z,46.10
2018-11-20T21:05:06.578Z,46.00
2018-11-20T21:07:57.492Z,46.10
2018-11-20T21:10:45.583Z,46.10
2018-11-20T21:13:34.189Z,46.00
2018-11-20T21:16:31.255Z,46.10
2018-11-20T21:19:18.092Z,46.00
2018-11-20T21:22:24.353Z,46.00
2018-11-20T21:25:12.190Z,46.00
2018-11-20T21:28:00.272Z,46.00
2018-11-20T21:30:48.628Z,46.00
2018-11-20T21:33:26.614Z,46.10
2018-11-20T21:36:13.085Z,46.10
2018-11-20T21:39:01.099Z,46.10
2018-11-20T21:42:07.345Z,46.20
2018-11-20T21:44:54.128Z,46.20
2018-11-20T21:47:51.010Z,46.20
2018-11-20T21:50:57.275Z,46.20
2018-11-20T21:53:54.271Z,46.20
2018-11-20T21:56:45.271Z,46.10
2018-11-20T21:59:36.460Z,46.20
2018-11-20T22:02:25.052Z,46.10
2018-11-20T22:05:12.997Z,46.10
2018-11-20T22:08:01.121Z,46.10
2018-11-20T22:10:49.131Z,46.20
2018-11-20T22:13:31.336Z,46.20
2018-11-20T22:16:24.850Z,46.10
2018-11-20T22:19:11.413Z,46.10
2018-11-20T22:21:59.377Z,46.10
2018-11-20T22:24:44.137Z,46.10
2018-11-20T22:27:38.116Z,46.10
2018-11-20T22:30:28.189Z,46.10
2018-11-20T22:33:22.697Z,46.10
2018-11-20T22:36:08.886Z,45.80
2018-11-20T22:39:05.586Z,46.10
2018-11-20T22:42:05.654Z,46.00
2018-11-20T22:44:56.657Z,46.00
2018-11-20T22:47:44.584Z,46.70
2018-11-20T22:50:38.268Z,46.00
2018-11-20T22:53:18.954Z,46.00
2018-11-20T22:56:04.978Z,46.00
2018-11-20T22:58:55.734Z,46.00
2018-11-20T23:01:55.793Z,45.90
2018-11-20T23:05:06.525Z,45.90
2018-11-20T23:07:52.414Z,45.90
2018-11-20T23:10:22.054Z,46.00
2018-11-20T23:12:51.486Z,45.90
2018-11-20T23:15:20.578Z,45.90
2018-11-20T23:17:49.649Z,46.00
2018-11-20T23:20:18.733Z,46.00
2018-11-20T23:22:47.686Z,45.90
2018-11-20T23:25:16.692Z,46.00
2018-11-20T23:27:45.785Z,45.90
2018-11-20T23:30:15.609Z,45.90
2018-11-20T23:32:53.474Z,45.90
2018-11-20T23:35:22.841Z,45.90
2018-11-20T23:37:51.834Z,45.90
2018-11-20T23:40:20.820Z,46.00
2018-11-20T23:42:49.751Z,45.90
2018-11-20T23:45:18.479Z,45.90
2018-11-20T23:47:47.430Z,45.90
2018-11-20T23:50:16.118Z,45.90
2018-11-20T23:52:45.172Z,45.90
2018-11-20T23:55:14.778Z,45.90
2018-11-20T23:57:43.686Z,45.90
